Time;durP1;ratioP1;P1;durP2;ratioP2;P2;SDS_P1;SDS_P2;PMS_P1;PMS_P2;Temp;Humidity;BMP_temperature;BMP_pressure;BME280_temperature;BME280_humidity;BME280_pressure;Samples;Min_cycle;Max_cycle;Signal;HPM_P1;HPM_P2
2023/09/16 00:00:10;;;;;;;18.40;14.35;;;16.80;99.90;;;;;;5073640;28;20043;-73
2023/09/16 00:02:36;;;;;;;15.73;12.68;;;16.80;99.90;;;;;;5065408;28;20049;-73
2023/09/16 00:05:03;;;;;;;20.50;15.90;;;16.90;99.90;;;;;;5067415;28;20095;-72
2023/09/16 00:07:29;;;;;;;25.23;19.40;;;17.00;99.90;;;;;;5079317;28;20028;-73
2023/09/16 00:09:56;;;;;;;21.30;17.40;;;16.90;99.90;;;;;;5066205;28;20371;-73
2023/09/16 00:12:23;;;;;;;23.00;19.05;;;17.00;99.90;;;;;;5079261;28;20122;-72
2023/09/16 00:14:49;;;;;;;25.90;20.95;;;17.00;99.90;;;;;;5071733;28;20024;-72
2023/09/16 00:17:15;;;;;;;26.23;19.98;;;17.10;99.90;;;;;;5073711;28;20145;-72
2023/09/16 00:19:40;;;;;;;21.08;18.88;;;17.10;99.90;;;;;;5080073;28;20089;-72
2023/09/16 00:22:10;;;;;;;15.23;12.45;;;17.10;99.90;;;;;;5075369;28;20027;-73
2023/09/16 00:24:36;;;;;;;19.50;15.50;;;17.10;99.90;;;;;;5086774;28;20106;-72
2023/09/16 00:27:03;;;;;;;14.50;11.90;;;17.10;99.90;;;;;;5077935;28;20036;-73
2023/09/16 00:29:29;;;;;;;15.30;13.05;;;17.00;99.90;;;;;;5074181;28;20026;-72
2023/09/16 00:31:55;;;;;;;17.77;16.00;;;17.00;99.90;;;;;;5074160;28;20032;-72
2023/09/16 00:34:21;;;;;;;18.38;16.00;;;17.00;99.90;;;;;;5072271;28;20026;-73
2023/09/16 00:36:47;;;;;;;20.38;14.80;;;16.90;99.90;;;;;;5082301;28;20028;-72
2023/09/16 00:39:13;;;;;;;16.23;13.85;;;16.90;99.90;;;;;;5068276;28;20382;-72
2023/09/16 00:41:40;;;;;;;19.65;14.98;;;16.90;99.90;;;;;;5079784;28;20036;-72
2023/09/16 00:44:05;;;;;;;19.42;15.50;;;16.90;99.90;;;;;;5066458;28;20036;-72
2023/09/16 00:46:31;;;;;;;19.40;16.20;;;16.90;99.90;;;;;;5076315;28;20024;-72
2023/09/16 00:48:57;;;;;;;19.58;17.50;;;16.90;99.90;;;;;;5069207;28;20017;-72
2023/09/16 00:51:23;;;;;;;23.45;17.67;;;16.90;99.90;;;;;;5074586;28;20028;-72
2023/09/16 00:53:50;;;;;;;21.95;16.67;;;16.80;99.90;;;;;;5064999;28;20495;-72
2023/09/16 00:56:16;;;;;;;20.25;17.88;;;16.90;99.90;;;;;;5074105;28;20020;-72
2023/09/16 00:58:42;;;;;;;23.25;18.60;;;16.90;99.90;;;;;;5078263;28;20024;-72
2023/09/16 01:01:13;;;;;;;22.88;18.83;;;16.90;99.90;;;;;;5075257;28;20025;-72
2023/09/16 01:03:41;;;;;;;24.23;18.55;;;16.90;99.90;;;;;;5072345;28;20099;-72
2023/09/16 01:06:10;;;;;;;19.95;17.10;;;16.80;99.90;;;;;;5075429;28;20032;-72
2023/09/16 01:08:35;;;;;;;27.17;19.05;;;16.80;99.90;;;;;;5073835;28;20025;-72
2023/09/16 01:11:05;;;;;;;22.88;17.75;;;16.80;99.90;;;;;;5077035;28;20040;-72
2023/09/16 01:13:33;;;;;;;20.88;16.38;;;16.80;99.90;;;;;;5081807;28;20017;-72
2023/09/16 01:16:08;;;;;;;25.42;19.77;;;16.80;99.90;;;;;;5079183;28;20016;-72
2023/09/16 01:18:42;;;;;;;21.17;18.38;;;16.80;99.90;;;;;;5072346;28;20386;-72
2023/09/16 01:21:08;;;;;;;27.88;21.65;;;16.80;99.90;;;;;;5081642;28;20068;-72
2023/09/16 01:23:34;;;;;;;23.48;20.10;;;16.80;99.90;;;;;;5070774;28;20061;-72
2023/09/16 01:26:00;;;;;;;21.08;17.08;;;16.80;99.90;;;;;;5074261;28;20060;-73
2023/09/16 01:28:26;;;;;;;20.50;16.80;;;16.70;99.90;;;;;;5082053;28;20020;-72
2023/09/16 01:30:55;;;;;;;21.73;17.45;;;16.70;99.90;;;;;;5077050;28;20461;-72
2023/09/16 01:33:36;;;;;;;18.48;15.75;;;16.70;99.90;;;;;;5074335;28;20032;-72
2023/09/16 01:36:11;;;;;;;17.75;15.43;;;16.70;99.90;;;;;;5075040;28;20428;-72
2023/09/16 01:38:40;;;;;;;20.65;15.68;;;16.60;99.90;;;;;;5068933;28;20028;-72
2023/09/16 01:41:09;;;;;;;18.23;15.85;;;16.60;99.90;;;;;;5068840;28;20063;-72
2023/09/16 01:43:36;;;;;;;20.45;16.40;;;16.60;99.90;;;;;;5082761;28;20055;-72
2023/09/16 01:46:02;;;;;;;20.90;16.73;;;16.60;99.90;;;;;;5069565;28;20515;-72
2023/09/16 01:48:28;;;;;;;20.88;18.42;;;16.70;99.90;;;;;;5079769;28;20055;-73
2023/09/16 01:50:53;;;;;;;19.48;17.38;;;16.60;99.90;;;;;;5079506;28;20025;-72
2023/09/16 01:53:19;;;;;;;24.45;19.38;;;16.60;99.90;;;;;;5071709;28;20028;-72
2023/09/16 01:55:45;;;;;;;24.50;20.67;;;16.60;99.90;;;;;;5067727;28;20056;-72
2023/09/16 01:58:11;;;;;;;24.65;20.35;;;16.60;99.90;;;;;;5082022;28;20023;-72
2023/09/16 02:00:37;;;;;;;26.15;20.38;;;16.60;99.90;;;;;;5072632;28;20137;-72
2023/09/16 02:03:03;;;;;;;24.67;20.08;;;16.60;99.90;;;;;;5073064;28;20103;-72
2023/09/16 02:05:29;;;;;;;27.20;21.75;;;16.50;99.90;;;;;;5072155;28;20028;-72
2023/09/16 02:07:57;;;;;;;29.75;22.70;;;16.50;99.90;;;;;;5066229;28;20388;-72
2023/09/16 02:10:22;;;;;;;27.98;21.05;;;16.40;99.90;;;;;;5079983;28;20024;-73
2023/09/16 02:12:48;;;;;;;23.58;21.02;;;16.30;99.90;;;;;;5063601;28;20025;-72
2023/09/16 02:15:14;;;;;;;24.48;21.88;;;16.30;99.90;;;;;;5078588;28;20078;-72
2023/09/16 02:17:40;;;;;;;29.08;22.15;;;16.40;99.90;;;;;;5082260;28;20523;-73
2023/09/16 02:20:12;;;;;;;21.05;16.52;;;16.30;99.90;;;;;;5072636;28;20500;-72
2023/09/16 02:22:40;;;;;;;22.35;16.48;;;16.30;99.90;;;;;;5069037;28;20107;-73
2023/09/16 02:25:06;;;;;;;21.55;18.25;;;16.40;99.90;;;;;;5079108;28;20033;-73
2023/09/16 02:27:33;;;;;;;27.48;18.98;;;16.40;99.90;;;;;;5080480;28;20024;-72
2023/09/16 02:29:58;;;;;;;25.30;21.27;;;16.40;99.90;;;;;;5078933;28;20035;-72
2023/09/16 02:32:24;;;;;;;25.45;21.17;;;16.40;99.90;;;;;;5076561;28;20012;-72
2023/09/16 02:34:50;;;;;;;21.80;17.65;;;16.40;99.90;;;;;;5067695;28;20115;-72
2023/09/16 02:37:15;;;;;;;23.90;19.33;;;16.40;99.90;;;;;;5073421;28;20179;-72
2023/09/16 02:39:41;;;;;;;24.35;19.35;;;16.50;99.90;;;;;;5083173;28;20036;-72
2023/09/16 02:42:07;;;;;;;23.83;16.98;;;16.40;99.90;;;;;;5075315;28;20024;-73
2023/09/16 02:44:32;;;;;;;23.80;16.60;;;16.40;99.90;;;;;;5073404;28;20404;-72
2023/09/16 02:46:58;;;;;;;24.23;17.77;;;16.40;99.90;;;;;;5065572;28;20485;-72
2023/09/16 02:49:25;;;;;;;22.27;18.63;;;16.40;99.90;;;;;;5071987;28;20016;-73
2023/09/16 02:51:51;;;;;;;23.77;16.80;;;16.30;99.90;;;;;;5085736;28;20077;-71
2023/09/16 02:54:16;;;;;;;26.45;20.98;;;16.20;99.90;;;;;;5067817;28;20112;-72
2023/09/16 02:56:42;;;;;;;23.70;19.50;;;16.20;99.90;;;;;;5075040;28;20035;-72
2023/09/16 02:59:08;;;;;;;28.95;22.75;;;16.10;99.90;;;;;;5073890;28;20163;-72
2023/09/16 03:01:33;;;;;;;32.78;23.75;;;16.10;99.90;;;;;;5074373;28;20029;-72
2023/09/16 03:03:59;;;;;;;29.23;24.25;;;16.10;99.90;;;;;;5076737;28;20103;-73
2023/09/16 03:06:26;;;;;;;31.08;25.40;;;16.10;99.90;;;;;;5070616;28;20081;-73
2023/09/16 03:08:52;;;;;;;24.27;20.40;;;16.20;99.90;;;;;;5077230;28;20481;-72
2023/09/16 03:11:18;;;;;;;25.15;18.27;;;16.20;99.90;;;;;;5072175;28;20039;-72
2023/09/16 03:13:44;;;;;;;21.80;19.25;;;16.20;99.90;;;;;;5079147;28;20020;-73
2023/09/16 03:16:21;;;;;;;29.67;21.23;;;16.10;99.90;;;;;;5075106;28;20032;-73
2023/09/16 03:18:50;;;;;;;27.20;21.35;;;16.10;99.90;;;;;;5077102;28;20078;-73
2023/09/16 03:21:17;;;;;;;27.90;23.27;;;16.10;99.90;;;;;;5065351;28;20028;-73
2023/09/16 03:23:44;;;;;;;27.25;23.50;;;16.10;99.90;;;;;;5081597;28;20020;-73
2023/09/16 03:26:11;;;;;;;23.50;18.40;;;16.10;99.90;;;;;;5076169;28;20060;-73
2023/09/16 03:28:45;;;;;;;26.60;18.73;;;16.20;99.90;;;;;;5074379;28;20024;-73
2023/09/16 03:31:11;;;;;;;22.60;18.35;;;16.20;99.90;;;;;;5068881;28;20032;-73
2023/09/16 03:33:37;;;;;;;23.27;19.83;;;16.10;99.90;;;;;;5065844;28;20021;-73
2023/09/16 03:36:04;;;;;;;21.55;19.05;;;16.20;99.90;;;;;;5076053;28;20679;-72
2023/09/16 03:38:31;;;;;;;23.75;19.40;;;16.20;99.90;;;;;;5070262;28;20036;-73
2023/09/16 03:40:57;;;;;;;26.17;19.00;;;16.20;99.90;;;;;;5080156;28;20488;-73
2023/09/16 03:43:24;;;;;;;21.77;19.38;;;16.20;99.90;;;;;;5064440;28;20029;-73
2023/09/16 03:45:49;;;;;;;18.55;16.30;;;16.20;99.90;;;;;;5083215;28;20024;-73
2023/09/16 03:48:15;;;;;;;26.33;19.38;;;16.10;99.90;;;;;;5084153;28;20028;-73
2023/09/16 03:50:41;;;;;;;28.40;18.27;;;16.00;99.90;;;;;;5074660;28;20108;-73
2023/09/16 03:53:07;;;;;;;22.83;18.65;;;16.10;99.90;;;;;;5072880;28;20443;-73
2023/09/16 03:55:32;;;;;;;24.63;17.52;;;16.00;99.90;;;;;;5073406;28;20029;-73
2023/09/16 03:58:00;;;;;;;31.98;23.27;;;16.00;99.90;;;;;;5072512;28;20377;-73
2023/09/16 04:00:26;;;;;;;29.55;21.75;;;15.90;99.90;;;;;;5084418;28;20063;-73
2023/09/16 04:02:52;;;;;;;28.05;22.05;;;15.80;99.90;;;;;;5069099;28;21189;-73
2023/09/16 04:05:17;;;;;;;25.80;21.92;;;15.80;99.90;;;;;;5078101;28;20020;-73
2023/09/16 04:07:43;;;;;;;28.85;23.17;;;15.80;99.90;;;;;;5070125;28;20116;-73
2023/09/16 04:10:09;;;;;;;30.73;23.85;;;15.80;99.90;;;;;;5079161;28;20028;-73
2023/09/16 04:12:35;;;;;;;26.90;22.38;;;15.80;99.90;;;;;;5072987;28;20023;-73
2023/09/16 04:15:01;;;;;;;26.38;20.27;;;15.80;99.90;;;;;;5065394;28;20029;-73
2023/09/16 04:17:28;;;;;;;29.65;19.95;;;15.80;99.90;;;;;;5076666;28;20039;-73
2023/09/16 04:19:54;;;;;;;26.15;21.65;;;15.80;99.90;;;;;;5080856;28;20040;-73
2023/09/16 04:22:20;;;;;;;28.23;21.85;;;15.70;99.90;;;;;;5080898;28;20020;-73
2023/09/16 04:24:46;;;;;;;29.65;22.83;;;15.80;99.90;;;;;;5069697;28;20070;-73
2023/09/16 04:27:12;;;;;;;29.85;24.70;;;15.70;99.90;;;;;;5072466;28;20024;-73
2023/09/16 04:29:37;;;;;;;31.25;22.88;;;15.80;99.90;;;;;;5078405;28;20020;-72
2023/09/16 04:32:03;;;;;;;28.10;22.63;;;15.70;99.90;;;;;;5079045;28;20031;-72
2023/09/16 04:34:29;;;;;;;30.60;23.88;;;15.80;99.90;;;;;;5071227;28;20518;-73
2023/09/16 04:36:55;;;;;;;28.42;23.45;;;15.80;99.90;;;;;;5071060;28;20066;-73
2023/09/16 04:39:23;;;;;;;28.20;23.58;;;15.90;99.90;;;;;;5080766;28;20381;-73
2023/09/16 04:41:53;;;;;;;32.28;24.05;;;15.80;99.90;;;;;;5077535;28;20024;-73
2023/09/16 04:44:22;;;;;;;29.30;22.80;;;15.90;99.90;;;;;;5070211;28;20021;-72
2023/09/16 04:46:49;;;;;;;28.83;22.83;;;15.80;99.90;;;;;;5075198;28;20032;-73
2023/09/16 04:49:14;;;;;;;27.77;22.50;;;15.90;99.90;;;;;;5075361;28;20492;-73
2023/09/16 04:51:40;;;;;;;28.67;23.02;;;15.80;99.90;;;;;;5073083;28;20024;-73
2023/09/16 04:54:09;;;;;;;26.42;20.80;;;15.70;99.90;;;;;;5073964;28;20032;-73
2023/09/16 04:56:35;;;;;;;23.05;18.95;;;15.70;99.90;;;;;;5077218;28;20016;-73
2023/09/16 04:59:01;;;;;;;22.00;16.98;;;15.70;99.90;;;;;;5077783;28;20028;-73
2023/09/16 05:01:29;;;;;;;25.10;18.67;;;15.80;99.90;;;;;;5073886;28;20044;-73
2023/09/16 05:03:55;;;;;;;26.05;19.45;;;15.80;99.90;;;;;;5076754;28;20016;-72
2023/09/16 05:06:21;;;;;;;22.02;17.40;;;15.80;99.90;;;;;;5071097;28;20666;-73
2023/09/16 05:08:48;;;;;;;20.92;17.70;;;15.80;99.90;;;;;;5079106;28;20085;-73
2023/09/16 05:11:14;;;;;;;20.58;18.38;;;15.90;99.90;;;;;;5078845;28;20047;-73
2023/09/16 05:13:40;;;;;;;24.73;18.85;;;15.80;99.90;;;;;;5069646;28;20484;-73
2023/09/16 05:16:07;;;;;;;21.20;18.88;;;15.80;99.90;;;;;;5076433;28;20013;-72
2023/09/16 05:18:34;;;;;;;21.50;18.65;;;15.80;99.90;;;;;;5073715;28;20116;-72
2023/09/16 05:20:59;;;;;;;20.63;18.05;;;15.80;99.90;;;;;;5074832;28;20378;-73
2023/09/16 05:23:25;;;;;;;17.70;15.85;;;15.80;99.90;;;;;;5074324;28;20520;-73
2023/09/16 05:25:51;;;;;;;27.00;18.92;;;15.80;99.90;;;;;;5076692;28;20036;-74
2023/09/16 05:28:17;;;;;;;26.67;18.45;;;15.70;99.90;;;;;;5082967;28;20036;-72
2023/09/16 05:30:44;;;;;;;21.10;18.42;;;15.70;99.90;;;;;;5066787;28;20029;-72
2023/09/16 05:33:11;;;;;;;23.60;19.15;;;15.70;99.90;;;;;;5079092;28;20047;-73
2023/09/16 05:35:38;;;;;;;22.25;17.50;;;15.70;99.90;;;;;;5072576;28;20067;-72
2023/09/16 05:38:04;;;;;;;23.42;18.00;;;15.60;99.90;;;;;;5075289;28;20107;-73
2023/09/16 05:40:30;;;;;;;28.92;19.73;;;15.60;99.90;;;;;;5082578;28;20542;-72
2023/09/16 05:42:56;;;;;;;19.02;16.50;;;15.70;99.90;;;;;;5066615;28;20031;-72
2023/09/16 05:45:22;;;;;;;21.25;17.40;;;15.70;99.90;;;;;;5075453;28;20032;-72
2023/09/16 05:47:49;;;;;;;23.50;17.65;;;15.70;99.90;;;;;;5071319;28;20401;-72
2023/09/16 05:50:16;;;;;;;25.48;18.88;;;15.70;99.90;;;;;;5074936;28;20095;-72
2023/09/16 05:52:42;;;;;;;22.60;18.13;;;15.70;99.90;;;;;;5082205;28;20107;-72
2023/09/16 05:55:08;;;;;;;21.83;17.17;;;15.80;99.90;;;;;;5070714;28;20174;-73
2023/09/16 05:57:34;;;;;;;23.65;17.38;;;15.70;99.90;;;;;;5077694;28;20103;-72
2023/09/16 06:00:00;;;;;;;23.67;16.70;;;15.70;99.90;;;;;;5068544;28;20041;-73
2023/09/16 06:02:25;;;;;;;20.27;17.73;;;15.70;99.90;;;;;;5076208;28;20077;-73
2023/09/16 06:04:51;;;;;;;23.70;20.23;;;15.60;99.90;;;;;;5076915;28;20481;-73
2023/09/16 06:07:17;;;;;;;22.65;20.15;;;15.70;99.90;;;;;;5074951;28;20071;-72
2023/09/16 06:09:43;;;;;;;26.50;20.95;;;15.70;99.90;;;;;;5079400;28;20029;-73
2023/09/16 06:12:09;;;;;;;23.85;21.35;;;15.70;99.90;;;;;;5077369;28;20836;-72
2023/09/16 06:14:35;;;;;;;25.10;19.52;;;15.70;99.90;;;;;;5075265;28;20023;-72
2023/09/16 06:17:01;;;;;;;23.20;18.88;;;15.60;99.90;;;;;;5081540;28;20032;-73
2023/09/16 06:19:28;;;;;;;27.73;19.77;;;15.60;99.90;;;;;;5074728;28;20036;-72
2023/09/16 06:21:55;;;;;;;23.65;21.15;;;15.70;99.90;;;;;;5074182;28;20098;-72
2023/09/16 06:24:21;;;;;;;26.92;21.00;;;15.80;99.90;;;;;;5075133;28;20556;-72
2023/09/16 06:26:47;;;;;;;24.60;20.20;;;15.80;99.90;;;;;;5075664;28;20017;-73
2023/09/16 06:29:13;;;;;;;25.98;19.98;;;15.80;99.90;;;;;;5075206;28;20431;-72
2023/09/16 06:31:39;;;;;;;27.95;19.15;;;15.80;99.90;;;;;;5074658;28;20047;-73
2023/09/16 06:34:05;;;;;;;28.17;19.52;;;15.80;99.90;;;;;;5070069;28;20469;-73
2023/09/16 06:36:31;;;;;;;23.00;20.08;;;15.90;99.90;;;;;;5078871;28;20029;-73
2023/09/16 06:38:59;;;;;;;24.02;19.55;;;15.90;99.90;;;;;;5073731;28;20029;-73
2023/09/16 06:41:25;;;;;;;24.50;20.08;;;15.80;99.90;;;;;;5072196;28;20474;-72
2023/09/16 06:43:51;;;;;;;26.27;22.92;;;15.80;99.90;;;;;;5072746;28;20104;-73
2023/09/16 06:46:17;;;;;;;24.35;21.10;;;15.80;99.90;;;;;;5068766;28;20031;-72
2023/09/16 06:48:45;;;;;;;29.63;20.85;;;15.80;99.90;;;;;;5061205;28;20021;-72
2023/09/16 06:51:11;;;;;;;28.25;20.30;;;15.80;99.90;;;;;;5067641;28;20020;-74
2023/09/16 06:53:36;;;;;;;23.40;17.80;;;15.90;99.90;;;;;;5078446;28;20426;-73
2023/09/16 06:56:02;;;;;;;23.15;19.40;;;16.00;99.90;;;;;;5068611;28;20025;-72
2023/09/16 06:58:28;;;;;;;30.00;21.67;;;16.10;99.90;;;;;;5070567;28;20035;-72
2023/09/16 07:00:54;;;;;;;24.80;19.27;;;16.00;99.90;;;;;;5065952;28;20074;-73
2023/09/16 07:03:21;;;;;;;26.58;20.17;;;16.00;99.90;;;;;;5070748;28;20035;-73
2023/09/16 07:05:48;;;;;;;24.08;20.92;;;16.10;99.90;;;;;;5072802;28;20513;-72
2023/09/16 07:08:17;;;;;;;27.63;23.13;;;16.10;99.90;;;;;;5073992;28;20016;-73
2023/09/16 07:10:43;;;;;;;28.30;21.67;;;16.20;99.90;;;;;;5070622;28;20029;-73
2023/09/16 07:13:09;;;;;;;28.17;22.60;;;16.20;99.90;;;;;;5076090;28;20107;-73
2023/09/16 07:15:35;;;;;;;22.58;20.10;;;16.30;99.90;;;;;;5073687;28;20017;-72
2023/09/16 07:18:01;;;;;;;33.58;26.83;;;16.30;99.90;;;;;;5075811;28;20099;-73
2023/09/16 07:20:27;;;;;;;27.83;22.25;;;16.40;99.90;;;;;;5066239;28;20040;-73
2023/09/16 07:22:55;;;;;;;30.42;23.00;;;16.40;99.90;;;;;;5071822;28;20028;-72
2023/09/16 07:25:21;;;;;;;24.38;20.77;;;16.40;99.90;;;;;;5066033;28;20051;-73
2023/09/16 07:27:47;;;;;;;42.22;23.92;;;16.50;99.90;;;;;;5071419;28;20480;-72
2023/09/16 07:30:14;;;;;;;36.35;26.05;;;16.60;99.90;;;;;;5068602;28;20040;-72
2023/09/16 07:32:41;;;;;;;34.70;25.33;;;16.60;99.90;;;;;;5068475;28;20021;-72
2023/09/16 07:35:08;;;;;;;37.20;27.38;;;16.70;99.90;;;;;;5069918;28;20091;-71
2023/09/16 07:37:34;;;;;;;40.45;31.90;;;16.70;99.90;;;;;;5069587;28;20020;-72
2023/09/16 07:39:59;;;;;;;31.05;23.40;;;16.80;99.90;;;;;;5078406;28;20147;-72
2023/09/16 07:42:25;;;;;;;40.88;29.17;;;16.80;99.90;;;;;;5068720;28;20393;-73
2023/09/16 07:44:51;;;;;;;39.25;29.40;;;16.90;99.90;;;;;;5072559;28;20121;-72
2023/09/16 07:47:17;;;;;;;34.20;23.90;;;17.00;99.90;;;;;;5068136;28;20595;-73
2023/09/16 07:49:42;;;;;;;30.60;24.15;;;17.00;99.90;;;;;;5067629;28;20075;-73
2023/09/16 07:52:08;;;;;;;30.92;25.35;;;17.10;99.90;;;;;;5068929;28;20391;-73
2023/09/16 07:54:34;;;;;;;28.13;22.85;;;17.10;99.90;;;;;;5069557;28;20086;-72
2023/09/16 07:57:00;;;;;;;35.33;25.77;;;17.20;99.90;;;;;;5068810;28;20033;-72
2023/09/16 07:59:28;;;;;;;31.65;25.02;;;17.30;99.90;;;;;;5069880;28;20446;-73
2023/09/16 08:01:54;;;;;;;30.42;24.73;;;17.40;99.90;;;;;;5073370;28;20029;-73
2023/09/16 08:04:20;;;;;;;35.38;26.17;;;17.50;99.90;;;;;;5069776;28;20066;-73
2023/09/16 08:06:49;;;;;;;35.75;26.70;;;17.60;99.90;;;;;;5067957;28;20036;-73
2023/09/16 08:09:16;;;;;;;33.22;25.52;;;17.70;99.90;;;;;;5080209;28;20032;-72
2023/09/16 08:11:42;;;;;;;36.70;24.85;;;17.80;99.90;;;;;;5067928;28;20025;-73
2023/09/16 08:14:08;;;;;;;35.45;25.10;;;17.90;99.90;;;;;;5070996;28;20031;-71
2023/09/16 08:16:34;;;;;;;37.65;25.60;;;18.00;99.90;;;;;;5071922;28;20024;-72
2023/09/16 08:19:00;;;;;;;31.13;25.35;;;18.10;99.90;;;;;;5065417;28;20028;-72
2023/09/16 08:21:26;;;;;;;25.80;21.98;;;18.20;99.90;;;;;;5076848;28;20051;-72
2023/09/16 08:23:51;;;;;;;33.85;21.50;;;18.30;99.90;;;;;;5070811;28;20031;-72
2023/09/16 08:26:17;;;;;;;29.58;22.05;;;18.40;99.90;;;;;;5068198;28;20078;-72
2023/09/16 08:28:43;;;;;;;30.30;21.00;;;18.40;99.90;;;;;;5060545;28;20024;-72
2023/09/16 08:31:09;;;;;;;30.33;21.52;;;18.50;99.90;;;;;;5076162;28;20028;-73
2023/09/16 08:33:34;;;;;;;25.02;19.52;;;18.60;99.90;;;;;;5070690;28;20770;-72
2023/09/16 08:36:00;;;;;;;31.63;22.33;;;18.80;99.90;;;;;;5069261;28;20047;-71
2023/09/16 08:38:25;;;;;;;25.30;19.23;;;18.90;99.90;;;;;;5075399;28;20393;-72
2023/09/16 08:41:02;;;;;;;31.90;20.63;;;19.00;99.90;;;;;;5078460;28;20062;-72
2023/09/16 08:43:37;;;;;;;27.92;21.20;;;19.10;99.90;;;;;;5077424;28;20020;-72
2023/09/16 08:46:07;;;;;;;30.27;20.80;;;19.20;99.90;;;;;;5068315;28;20024;-72
2023/09/16 08:48:36;;;;;;;26.85;19.77;;;19.30;99.90;;;;;;5078978;28;20053;-73
2023/09/16 08:51:05;;;;;;;23.10;18.80;;;19.40;99.90;;;;;;5080607;28;20087;-73
2023/09/16 08:53:33;;;;;;;29.05;20.48;;;19.60;99.90;;;;;;5074156;28;20106;-73
2023/09/16 08:55:59;;;;;;;25.40;19.92;;;19.60;99.90;;;;;;5077259;28;20468;-73
2023/09/16 08:58:26;;;;;;;25.02;19.92;;;19.70;99.90;;;;;;5084795;28;20016;-73
2023/09/16 09:00:52;;;;;;;22.50;18.08;;;19.70;99.90;;;;;;5075830;28;20401;-73
2023/09/16 09:03:18;;;;;;;22.13;17.80;;;19.90;99.90;;;;;;5076476;28;20025;-73
2023/09/16 09:05:44;;;;;;;22.65;15.02;;;19.90;99.90;;;;;;5073638;28;20388;-72
2023/09/16 09:08:11;;;;;;;25.58;19.42;;;19.90;99.90;;;;;;5075114;28;20505;-72
2023/09/16 09:10:39;;;;;;;21.23;16.70;;;20.10;99.90;;;;;;5072853;28;20042;-71
2023/09/16 09:13:15;;;;;;;22.90;16.98;;;20.20;99.90;;;;;;5074176;28;20512;-73
2023/09/16 09:15:42;;;;;;;21.65;13.68;;;20.40;99.90;;;;;;5066413;28;20366;-72
2023/09/16 09:18:10;;;;;;;19.80;15.15;;;20.50;99.90;;;;;;5072405;28;20021;-72
2023/09/16 09:20:37;;;;;;;22.50;14.02;;;20.60;99.90;;;;;;5074752;28;20106;-72
2023/09/16 09:23:03;;;;;;;21.33;15.35;;;20.80;99.90;;;;;;5070917;28;20031;-72
2023/09/16 09:25:31;;;;;;;26.75;17.52;;;20.90;99.90;;;;;;5082394;28;20024;-72
2023/09/16 09:27:57;;;;;;;20.30;13.38;;;21.00;99.90;;;;;;5065959;28;20020;-72
2023/09/16 09:30:26;;;;;;;14.32;11.77;;;21.20;99.90;;;;;;5078008;28;20093;-73
2023/09/16 09:32:56;;;;;;;23.48;15.43;;;21.30;99.90;;;;;;5068525;28;20028;-73
2023/09/16 09:35:23;;;;;;;24.25;15.68;;;21.40;99.90;;;;;;5064855;28;20021;-72
2023/09/16 09:37:49;;;;;;;14.68;10.65;;;21.60;99.90;;;;;;5077428;28;20025;-73
2023/09/16 09:40:15;;;;;;;15.00;11.75;;;21.60;99.90;;;;;;5079191;28;20058;-73
2023/09/16 09:42:46;;;;;;;16.75;12.73;;;21.60;99.90;;;;;;5065344;28;20110;-73
2023/09/16 09:45:14;;;;;;;17.55;14.40;;;21.70;99.90;;;;;;5078983;28;20020;-73
2023/09/16 09:47:41;;;;;;;20.00;14.95;;;21.90;99.90;;;;;;5072306;28;20028;-74
2023/09/16 09:50:11;;;;;;;14.40;12.32;;;22.00;99.90;;;;;;5078323;28;20031;-73
2023/09/16 09:52:37;;;;;;;18.83;12.20;;;22.10;99.90;;;;;;5077545;28;20050;-73
2023/09/16 09:55:03;;;;;;;16.38;12.90;;;22.20;99.90;;;;;;5069453;28;20032;-73
2023/09/16 09:57:29;;;;;;;13.07;9.85;;;22.40;99.90;;;;;;5072219;28;20127;-73
2023/09/16 09:59:56;;;;;;;22.35;16.95;;;22.40;99.90;;;;;;5084381;28;20122;-73
2023/09/16 10:02:26;;;;;;;20.55;14.50;;;22.60;99.90;;;;;;5069292;28;20031;-74
2023/09/16 10:05:01;;;;;;;19.90;13.88;;;22.70;99.90;;;;;;5082837;28;20040;-74
2023/09/16 10:07:30;;;;;;;19.25;13.77;;;22.50;99.90;;;;;;5075233;28;20096;-73
2023/09/16 10:09:56;;;;;;;19.35;11.20;;;22.60;99.90;;;;;;5077837;28;20035;-72
2023/09/16 10:12:22;;;;;;;15.10;13.00;;;22.80;99.90;;;;;;5071020;28;20017;-72
2023/09/16 10:14:48;;;;;;;16.20;13.00;;;22.90;99.90;;;;;;5073546;28;20089;-72
2023/09/16 10:17:15;;;;;;;20.40;13.63;;;22.90;99.90;;;;;;5080269;28;20020;-74
2023/09/16 10:19:42;;;;;;;20.33;12.25;;;23.10;99.90;;;;;;5069340;28;20102;-72
2023/09/16 10:22:10;;;;;;;17.35;12.85;;;23.00;99.90;;;;;;5069597;28;20033;-74
2023/09/16 10:24:36;;;;;;;17.55;15.00;;;23.10;99.90;;;;;;5066151;28;20034;-74
2023/09/16 10:27:08;;;;;;;15.38;12.38;;;23.30;99.90;;;;;;5076131;28;20024;-74
2023/09/16 10:29:35;;;;;;;17.17;12.82;;;23.40;99.90;;;;;;5077690;28;20013;-73
2023/09/16 10:32:01;;;;;;;18.20;11.75;;;23.60;99.90;;;;;;5065473;28;20074;-73
2023/09/16 10:34:29;;;;;;;15.98;11.93;;;23.70;99.90;;;;;;5079905;28;20025;-75
2023/09/16 10:36:55;;;;;;;14.70;11.20;;;23.80;99.90;;;;;;5067542;28;20039;-74
2023/09/16 10:39:22;;;;;;;16.48;11.55;;;23.80;99.90;;;;;;5075226;28;20032;-72
2023/09/16 10:41:48;;;;;;;16.50;12.75;;;23.90;99.90;;;;;;5068064;28;20028;-74
2023/09/16 10:44:16;;;;;;;13.60;11.32;;;24.00;99.90;;;;;;5070233;28;20020;-74
2023/09/16 10:46:43;;;;;;;16.73;13.27;;;24.10;99.90;;;;;;5072041;28;20381;-74
2023/09/16 10:49:09;;;;;;;20.15;14.02;;;24.30;99.90;;;;;;5066980;28;20044;-74
2023/09/16 10:51:45;;;;;;;16.73;14.93;;;24.40;99.90;;;;;;5066204;28;20103;-74
2023/09/16 10:54:24;;;;;;;14.63;13.00;;;24.60;99.90;;;;;;5065941;28;20028;-74
2023/09/16 10:56:51;;;;;;;13.55;11.55;;;24.70;99.90;;;;;;5074243;28;20031;-74
2023/09/16 10:59:18;;;;;;;12.73;10.88;;;24.70;99.90;;;;;;5071207;28;20040;-74
2023/09/16 11:01:56;;;;;;;15.20;12.18;;;24.80;99.90;;;;;;5069395;28;20032;-74
2023/09/16 11:04:22;;;;;;;14.30;12.02;;;24.90;99.90;;;;;;5063620;28;20031;-74
2023/09/16 11:06:50;;;;;;;12.35;10.02;;;24.80;99.90;;;;;;5072321;28;20499;-73
2023/09/16 11:09:21;;;;;;;19.42;12.77;;;25.00;99.90;;;;;;5080051;28;20024;-73
2023/09/16 11:11:48;;;;;;;13.18;10.95;;;24.90;99.90;;;;;;5071643;28;20024;-74
2023/09/16 11:14:15;;;;;;;10.63;8.48;;;25.00;99.90;;;;;;5073592;28;20070;-74
2023/09/16 11:16:51;;;;;;;14.57;8.52;;;25.10;99.90;;;;;;5078184;28;20016;-74
2023/09/16 11:19:22;;;;;;;11.10;9.70;;;25.00;99.90;;;;;;5071014;28;20028;-73
2023/09/16 11:21:48;;;;;;;13.68;11.63;;;25.10;99.90;;;;;;5073227;28;20105;-74
2023/09/16 11:24:14;;;;;;;15.02;10.52;;;25.20;99.90;;;;;;5074237;28;20015;-72
2023/09/16 11:26:40;;;;;;;16.92;11.05;;;25.30;99.90;;;;;;5076005;28;20038;-72
2023/09/16 11:29:20;;;;;;;11.75;10.32;;;25.50;99.90;;;;;;5075406;28;20954;-73
2023/09/16 11:31:46;;;;;;;12.57;8.65;;;25.50;99.90;;;;;;5068896;28;20530;-72
2023/09/16 11:34:12;;;;;;;14.07;9.35;;;25.40;99.90;;;;;;5076645;28;20072;-73
2023/09/16 11:36:43;;;;;;;14.18;11.32;;;25.40;99.90;;;;;;5073122;28;20106;-73
2023/09/16 11:39:12;;;;;;;14.52;10.93;;;25.40;99.90;;;;;;5080654;28;20017;-72
2023/09/16 11:41:37;;;;;;;15.48;10.68;;;25.50;99.90;;;;;;5074158;28;20103;-72
2023/09/16 11:44:04;;;;;;;11.90;10.35;;;25.50;99.90;;;;;;5073853;28;20507;-72
2023/09/16 11:46:31;;;;;;;11.00;9.50;;;25.40;99.90;;;;;;5067646;28;20490;-72
2023/09/16 11:49:06;;;;;;;9.25;8.35;;;25.50;99.90;;;;;;5081867;28;20028;-72
2023/09/16 11:51:35;;;;;;;17.20;10.27;;;25.50;99.90;;;;;;5082739;28;20020;-72
2023/09/16 11:54:02;;;;;;;12.75;9.10;;;25.60;99.90;;;;;;5072996;28;20020;-72
2023/09/16 11:56:35;;;;;;;11.05;9.80;;;25.70;99.90;;;;;;5065563;28;20089;-73
2023/09/16 11:59:03;;;;;;;8.73;7.63;;;25.70;99.90;;;;;;5065415;28;20104;-73
2023/09/16 12:01:31;;;;;;;8.57;7.78;;;25.80;99.90;;;;;;5066551;28;20033;-73
2023/09/16 12:03:58;;;;;;;8.93;7.93;;;25.80;99.90;;;;;;5078520;28;20016;-72
2023/09/16 12:06:28;;;;;;;11.90;9.07;;;26.00;99.90;;;;;;5070304;28;20021;-73
2023/09/16 12:08:56;;;;;;;12.93;8.93;;;26.00;99.90;;;;;;5081147;28;20032;-73
2023/09/16 12:11:23;;;;;;;10.38;7.70;;;26.20;99.90;;;;;;5084613;28;20020;-73
2023/09/16 12:13:49;;;;;;;8.43;7.40;;;26.10;99.90;;;;;;5074832;28;20362;-73
2023/09/16 12:16:15;;;;;;;24.65;9.77;;;26.20;99.90;;;;;;5085978;28;20035;-73
2023/09/16 12:18:43;;;;;;;12.13;8.38;;;26.10;99.90;;;;;;5078838;28;20489;-73
2023/09/16 12:21:09;;;;;;;17.15;9.48;;;26.00;99.90;;;;;;5080668;28;20067;-73
2023/09/16 12:23:34;;;;;;;14.07;10.80;;;25.90;99.90;;;;;;5072489;28;20519;-73
2023/09/16 12:26:00;;;;;;;12.65;9.20;;;26.00;99.90;;;;;;5080964;28;20044;-74